sensor_id;sensor_type;location;lat;lon;timestamp;P1;durP1;ratioP1;P2;durP2;ratioP2
71038;SDS011;58692;43.212;27.908;2023-05-16T00:00:02;13.07;;;7.03;;
71038;SDS011;58692;43.212;27.908;2023-05-16T00:02:33;11.80;;;6.93;;
71038;SDS011;58692;43.212;27.908;2023-05-16T00:05:01;11.18;;;6.38;;
71038;SDS011;58692;43.212;27.908;2023-05-16T00:07:29;12.15;;;6.88;;
71038;SDS011;58692;43.212;27.908;2023-05-16T00:09:55;12.73;;;6.87;;
71038;SDS011;58692;43.212;27.908;2023-05-16T00:12:20;13.38;;;6.90;;
71038;SDS011;58692;43.212;27.908;2023-05-16T00:14:47;10.87;;;6.33;;
71038;SDS011;58692;43.212;27.908;2023-05-16T00:17:12;9.70;;;6.25;;
71038;SDS011;58692;43.212;27.908;2023-05-16T00:19:38;10.30;;;6.57;;
71038;SDS011;58692;43.212;27.908;2023-05-16T00:22:04;14.30;;;7.27;;
71038;SDS011;58692;43.212;27.908;2023-05-16T00:24:30;11.90;;;7.15;;
71038;SDS011;58692;43.212;27.908;2023-05-16T00:26:57;11.25;;;6.97;;
71038;SDS011;58692;43.212;27.908;2023-05-16T00:29:22;14.17;;;6.60;;
71038;SDS011;58692;43.212;27.908;2023-05-16T00:31:48;11.63;;;6.97;;
71038;SDS011;58692;43.212;27.908;2023-05-16T00:34:14;14.88;;;6.97;;
71038;SDS011;58692;43.212;27.908;2023-05-16T00:36:40;13.37;;;6.97;;
71038;SDS011;58692;43.212;27.908;2023-05-16T00:39:05;12.10;;;6.63;;
71038;SDS011;58692;43.212;27.908;2023-05-16T00:41:32;13.55;;;6.85;;
71038;SDS011;58692;43.212;27.908;2023-05-16T00:43:58;14.23;;;7.37;;
71038;SDS011;58692;43.212;27.908;2023-05-16T00:46:24;13.30;;;7.13;;
71038;SDS011;58692;43.212;27.908;2023-05-16T00:48:49;10.77;;;6.73;;
71038;SDS011;58692;43.212;27.908;2023-05-16T00:51:16;11.98;;;7.20;;
71038;SDS011;58692;43.212;27.908;2023-05-16T00:53:41;13.95;;;7.28;;
71038;SDS011;58692;43.212;27.908;2023-05-16T00:56:08;13.50;;;7.00;;
71038;SDS011;58692;43.212;27.908;2023-05-16T00:58:35;13.20;;;7.50;;
71038;SDS011;58692;43.212;27.908;2023-05-16T01:01:01;12.25;;;6.50;;
71038;SDS011;58692;43.212;27.908;2023-05-16T01:03:29;15.60;;;7.30;;
71038;SDS011;58692;43.212;27.908;2023-05-16T01:05:55;11.93;;;7.00;;
71038;SDS011;58692;43.212;27.908;2023-05-16T01:08:22;12.60;;;7.57;;
71038;SDS011;58692;43.212;27.908;2023-05-16T01:10:52;12.73;;;7.25;;
71038;SDS011;58692;43.212;27.908;2023-05-16T01:16:36;13.30;;;7.15;;
71038;SDS011;58692;43.212;27.908;2023-05-16T01:19:13;14.95;;;7.60;;
71038;SDS011;58692;43.212;27.908;2023-05-16T01:21:48;12.97;;;7.47;;
71038;SDS011;58692;43.212;27.908;2023-05-16T01:24:32;12.98;;;7.10;;
71038;SDS011;58692;43.212;27.908;2023-05-16T01:27:05;11.82;;;7.40;;
71038;SDS011;58692;43.212;27.908;2023-05-16T01:29:32;12.55;;;6.93;;
71038;SDS011;58692;43.212;27.908;2023-05-16T01:31:57;13.37;;;6.93;;
71038;SDS011;58692;43.212;27.908;2023-05-16T01:34:23;14.45;;;7.20;;
71038;SDS011;58692;43.212;27.908;2023-05-16T01:36:52;11.80;;;7.17;;
71038;SDS011;58692;43.212;27.908;2023-05-16T01:39:40;12.85;;;6.90;;
71038;SDS011;58692;43.212;27.908;2023-05-16T01:42:11;11.40;;;6.73;;
71038;SDS011;58692;43.212;27.908;2023-05-16T01:44:42;15.43;;;7.55;;
71038;SDS011;58692;43.212;27.908;2023-05-16T01:47:15;13.55;;;6.90;;
71038;SDS011;58692;43.212;27.908;2023-05-16T01:49:49;15.82;;;8.02;;
71038;SDS011;58692;43.212;27.908;2023-05-16T01:52:26;12.45;;;7.05;;
71038;SDS011;58692;43.212;27.908;2023-05-16T01:54:56;13.53;;;7.50;;
71038;SDS011;58692;43.212;27.908;2023-05-16T01:57:23;12.90;;;6.85;;
71038;SDS011;58692;43.212;27.908;2023-05-16T01:59:51;15.32;;;7.20;;
71038;SDS011;58692;43.212;27.908;2023-05-16T02:02:17;12.43;;;7.70;;
71038;SDS011;58692;43.212;27.908;2023-05-16T02:04:43;12.55;;;6.88;;
71038;SDS011;58692;43.212;27.908;2023-05-16T02:07:09;12.97;;;6.67;;
71038;SDS011;58692;43.212;27.908;2023-05-16T02:09:34;18.27;;;8.30;;
71038;SDS011;58692;43.212;27.908;2023-05-16T02:12:00;15.10;;;7.97;;
71038;SDS011;58692;43.212;27.908;2023-05-16T02:14:26;13.18;;;6.95;;
71038;SDS011;58692;43.212;27.908;2023-05-16T02:16:52;13.73;;;6.93;;
71038;SDS011;58692;43.212;27.908;2023-05-16T02:19:17;17.70;;;9.55;;
71038;SDS011;58692;43.212;27.908;2023-05-16T02:21:43;14.43;;;6.97;;
71038;SDS011;58692;43.212;27.908;2023-05-16T02:24:08;14.97;;;7.80;;
71038;SDS011;58692;43.212;27.908;2023-05-16T02:26:34;14.63;;;7.88;;
71038;SDS011;58692;43.212;27.908;2023-05-16T02:28:59;14.47;;;7.20;;
71038;SDS011;58692;43.212;27.908;2023-05-16T02:31:26;12.13;;;7.33;;
71038;SDS011;58692;43.212;27.908;2023-05-16T02:33:54;14.60;;;7.53;;
71038;SDS011;58692;43.212;27.908;2023-05-16T02:36:19;13.90;;;7.75;;
71038;SDS011;58692;43.212;27.908;2023-05-16T02:38:45;16.03;;;8.70;;
71038;SDS011;58692;43.212;27.908;2023-05-16T02:41:11;15.55;;;7.45;;
71038;SDS011;58692;43.212;27.908;2023-05-16T02:43:36;16.10;;;7.30;;
71038;SDS011;58692;43.212;27.908;2023-05-16T02:46:03;13.20;;;7.37;;
71038;SDS011;58692;43.212;27.908;2023-05-16T02:48:29;14.13;;;8.20;;
71038;SDS011;58692;43.212;27.908;2023-05-16T02:50:55;14.10;;;8.15;;
71038;SDS011;58692;43.212;27.908;2023-05-16T02:53:21;15.67;;;7.90;;
71038;SDS011;58692;43.212;27.908;2023-05-16T02:55:46;16.57;;;9.37;;
71038;SDS011;58692;43.212;27.908;2023-05-16T02:58:12;14.13;;;8.43;;
71038;SDS011;58692;43.212;27.908;2023-05-16T03:00:38;15.68;;;9.00;;
71038;SDS011;58692;43.212;27.908;2023-05-16T03:03:03;15.27;;;8.83;;
71038;SDS011;58692;43.212;27.908;2023-05-16T03:05:28;15.47;;;8.93;;
71038;SDS011;58692;43.212;27.908;2023-05-16T03:07:54;18.63;;;8.90;;
71038;SDS011;58692;43.212;27.908;2023-05-16T03:10:20;17.45;;;8.60;;
71038;SDS011;58692;43.212;27.908;2023-05-16T03:12:45;16.27;;;8.27;;
71038;SDS011;58692;43.212;27.908;2023-05-16T03:15:11;15.07;;;8.37;;
71038;SDS011;58692;43.212;27.908;2023-05-16T03:17:36;13.60;;;8.13;;
71038;SDS011;58692;43.212;27.908;2023-05-16T03:20:01;16.97;;;8.10;;
71038;SDS011;58692;43.212;27.908;2023-05-16T03:22:28;15.45;;;8.30;;
71038;SDS011;58692;43.212;27.908;2023-05-16T03:24:54;15.17;;;8.47;;
71038;SDS011;58692;43.212;27.908;2023-05-16T03:27:21;18.75;;;8.48;;
71038;SDS011;58692;43.212;27.908;2023-05-16T03:29:47;15.52;;;8.63;;
71038;SDS011;58692;43.212;27.908;2023-05-16T03:32:12;15.10;;;8.70;;
71038;SDS011;58692;43.212;27.908;2023-05-16T03:34:38;15.93;;;8.25;;
71038;SDS011;58692;43.212;27.908;2023-05-16T03:37:03;16.47;;;9.20;;
71038;SDS011;58692;43.212;27.908;2023-05-16T03:39:29;14.83;;;8.57;;
71038;SDS011;58692;43.212;27.908;2023-05-16T03:41:54;15.98;;;9.18;;
71038;SDS011;58692;43.212;27.908;2023-05-16T03:44:21;17.23;;;8.30;;
71038;SDS011;58692;43.212;27.908;2023-05-16T03:46:46;16.45;;;9.20;;
71038;SDS011;58692;43.212;27.908;2023-05-16T03:49:12;14.50;;;8.23;;
71038;SDS011;58692;43.212;27.908;2023-05-16T03:51:37;15.40;;;8.57;;
71038;SDS011;58692;43.212;27.908;2023-05-16T03:54:03;14.70;;;8.02;;
71038;SDS011;58692;43.212;27.908;2023-05-16T03:56:28;18.20;;;9.27;;
71038;SDS011;58692;43.212;27.908;2023-05-16T03:58:54;16.30;;;9.20;;
71038;SDS011;58692;43.212;27.908;2023-05-16T04:01:19;17.40;;;9.00;;
71038;SDS011;58692;43.212;27.908;2023-05-16T04:03:45;15.80;;;8.07;;
71038;SDS011;58692;43.212;27.908;2023-05-16T04:06:10;16.33;;;9.03;;
71038;SDS011;58692;43.212;27.908;2023-05-16T04:08:36;16.48;;;9.05;;
71038;SDS011;58692;43.212;27.908;2023-05-16T04:11:03;18.83;;;8.52;;
71038;SDS011;58692;43.212;27.908;2023-05-16T04:13:29;16.50;;;8.17;;
71038;SDS011;58692;43.212;27.908;2023-05-16T04:15:55;12.80;;;7.30;;
71038;SDS011;58692;43.212;27.908;2023-05-16T04:18:20;17.52;;;9.30;;
71038;SDS011;58692;43.212;27.908;2023-05-16T04:20:46;16.03;;;8.50;;
71038;SDS011;58692;43.212;27.908;2023-05-16T04:23:11;18.98;;;8.73;;
71038;SDS011;58692;43.212;27.908;2023-05-16T04:25:37;15.33;;;8.50;;
71038;SDS011;58692;43.212;27.908;2023-05-16T04:28:03;16.67;;;8.45;;
71038;SDS011;58692;43.212;27.908;2023-05-16T04:30:29;14.32;;;8.43;;
71038;SDS011;58692;43.212;27.908;2023-05-16T04:32:55;14.87;;;8.27;;
71038;SDS011;58692;43.212;27.908;2023-05-16T04:35:23;16.95;;;8.30;;
71038;SDS011;58692;43.212;27.908;2023-05-16T04:37:49;14.85;;;7.78;;
71038;SDS011;58692;43.212;27.908;2023-05-16T04:40:15;21.03;;;7.87;;
71038;SDS011;58692;43.212;27.908;2023-05-16T04:42:41;17.27;;;7.90;;
71038;SDS011;58692;43.212;27.908;2023-05-16T04:45:07;14.85;;;7.90;;
71038;SDS011;58692;43.212;27.908;2023-05-16T04:47:35;14.40;;;7.70;;
71038;SDS011;58692;43.212;27.908;2023-05-16T04:50:02;17.92;;;7.78;;
71038;SDS011;58692;43.212;27.908;2023-05-16T04:52:28;12.90;;;7.63;;
71038;SDS011;58692;43.212;27.908;2023-05-16T04:54:54;18.05;;;7.95;;
71038;SDS011;58692;43.212;27.908;2023-05-16T04:57:20;15.67;;;7.97;;
71038;SDS011;58692;43.212;27.908;2023-05-16T04:59:45;14.95;;;7.00;;
71038;SDS011;58692;43.212;27.908;2023-05-16T05:02:10;16.10;;;7.20;;
71038;SDS011;58692;43.212;27.908;2023-05-16T05:04:36;14.03;;;7.10;;
71038;SDS011;58692;43.212;27.908;2023-05-16T05:07:02;14.43;;;7.20;;
71038;SDS011;58692;43.212;27.908;2023-05-16T05:09:27;11.37;;;6.33;;
71038;SDS011;58692;43.212;27.908;2023-05-16T05:11:56;12.70;;;6.57;;
71038;SDS011;58692;43.212;27.908;2023-05-16T05:14:24;13.33;;;6.00;;
71038;SDS011;58692;43.212;27.908;2023-05-16T05:16:50;13.43;;;6.57;;
71038;SDS011;58692;43.212;27.908;2023-05-16T05:19:15;11.73;;;5.83;;
71038;SDS011;58692;43.212;27.908;2023-05-16T05:21:41;13.65;;;6.32;;
71038;SDS011;58692;43.212;27.908;2023-05-16T05:24:07;15.77;;;5.93;;
71038;SDS011;58692;43.212;27.908;2023-05-16T05:26:33;10.47;;;5.63;;
71038;SDS011;58692;43.212;27.908;2023-05-16T05:28:59;10.45;;;5.85;;
71038;SDS011;58692;43.212;27.908;2023-05-16T05:31:24;12.02;;;5.40;;
71038;SDS011;58692;43.212;27.908;2023-05-16T05:33:50;12.90;;;6.37;;
71038;SDS011;58692;43.212;27.908;2023-05-16T05:36:15;13.40;;;5.83;;
71038;SDS011;58692;43.212;27.908;2023-05-16T05:38:41;15.40;;;6.57;;
71038;SDS011;58692;43.212;27.908;2023-05-16T05:41:06;12.67;;;6.23;;
71038;SDS011;58692;43.212;27.908;2023-05-16T05:43:32;14.27;;;5.67;;
71038;SDS011;58692;43.212;27.908;2023-05-16T05:45:58;14.32;;;5.95;;
71038;SDS011;58692;43.212;27.908;2023-05-16T05:48:24;11.70;;;5.45;;
71038;SDS011;58692;43.212;27.908;2023-05-16T05:50:49;14.17;;;5.73;;
71038;SDS011;58692;43.212;27.908;2023-05-16T05:53:15;10.75;;;5.70;;
71038;SDS011;58692;43.212;27.908;2023-05-16T05:55:40;12.93;;;5.90;;
71038;SDS011;58692;43.212;27.908;2023-05-16T05:58:06;17.30;;;5.27;;
71038;SDS011;58692;43.212;27.908;2023-05-16T06:00:31;16.13;;;5.53;;
71038;SDS011;58692;43.212;27.908;2023-05-16T06:02:57;11.33;;;5.60;;
71038;SDS011;58692;43.212;27.908;2023-05-16T06:05:24;15.20;;;5.68;;
71038;SDS011;58692;43.212;27.908;2023-05-16T06:07:49;14.17;;;5.90;;
71038;SDS011;58692;43.212;27.908;2023-05-16T06:10:15;14.23;;;5.70;;
71038;SDS011;58692;43.212;27.908;2023-05-16T06:12:41;11.07;;;6.07;;
71038;SDS011;58692;43.212;27.908;2023-05-16T06:15:06;10.03;;;5.23;;
71038;SDS011;58692;43.212;27.908;2023-05-16T06:17:32;14.23;;;5.15;;
71038;SDS011;58692;43.212;27.908;2023-05-16T06:19:58;13.03;;;5.10;;
71038;SDS011;58692;43.212;27.908;2023-05-16T06:22:23;18.48;;;5.45;;
71038;SDS011;58692;43.212;27.908;2023-05-16T06:24:49;11.43;;;4.37;;
71038;SDS011;58692;43.212;27.908;2023-05-16T06:27:14;13.13;;;5.55;;
71038;SDS011;58692;43.212;27.908;2023-05-16T06:29:40;9.93;;;5.10;;
71038;SDS011;58692;43.212;27.908;2023-05-16T06:32:05;12.07;;;5.50;;
71038;SDS011;58692;43.212;27.908;2023-05-16T06:34:31;12.77;;;5.10;;
71038;SDS011;58692;43.212;27.908;2023-05-16T06:36:57;13.73;;;5.30;;
71038;SDS011;58692;43.212;27.908;2023-05-16T06:39:23;11.32;;;5.60;;
71038;SDS011;58692;43.212;27.908;2023-05-16T06:41:49;11.30;;;5.80;;
71038;SDS011;58692;43.212;27.908;2023-05-16T06:44:14;11.93;;;4.85;;
71038;SDS011;58692;43.212;27.908;2023-05-16T06:46:40;10.70;;;4.93;;
71038;SDS011;58692;43.212;27.908;2023-05-16T06:49:05;10.17;;;5.13;;
71038;SDS011;58692;43.212;27.908;2023-05-16T06:51:31;13.73;;;4.82;;
71038;SDS011;58692;43.212;27.908;2023-05-16T06:53:57;12.17;;;4.80;;
71038;SDS011;58692;43.212;27.908;2023-05-16T06:56:22;10.50;;;5.47;;
71038;SDS011;58692;43.212;27.908;2023-05-16T06:58:49;13.07;;;4.80;;
71038;SDS011;58692;43.212;27.908;2023-05-16T07:01:14;11.03;;;4.90;;
71038;SDS011;58692;43.212;27.908;2023-05-16T07:03:40;11.38;;;5.00;;
71038;SDS011;58692;43.212;27.908;2023-05-16T07:06:06;12.35;;;4.60;;
71038;SDS011;58692;43.212;27.908;2023-05-16T07:08:32;12.80;;;4.97;;
71038;SDS011;58692;43.212;27.908;2023-05-16T07:10:59;13.23;;;5.03;;
71038;SDS011;58692;43.212;27.908;2023-05-16T07:13:25;8.93;;;4.57;;
71038;SDS011;58692;43.212;27.908;2023-05-16T07:15:54;11.40;;;5.10;;
71038;SDS011;58692;43.212;27.908;2023-05-16T07:18:26;9.52;;;4.95;;
71038;SDS011;58692;43.212;27.908;2023-05-16T07:20:52;9.90;;;4.80;;
71038;SDS011;58692;43.212;27.908;2023-05-16T07:23:18;10.40;;;4.90;;
71038;SDS011;58692;43.212;27.908;2023-05-16T07:25:43;10.98;;;5.57;;
71038;SDS011;58692;43.212;27.908;2023-05-16T07:28:09;12.40;;;5.20;;
71038;SDS011;58692;43.212;27.908;2023-05-16T07:30:35;10.83;;;4.90;;
71038;SDS011;58692;43.212;27.908;2023-05-16T07:33:00;11.50;;;5.05;;
71038;SDS011;58692;43.212;27.908;2023-05-16T07:35:26;10.17;;;4.50;;
71038;SDS011;58692;43.212;27.908;2023-05-16T07:37:51;15.13;;;5.20;;
71038;SDS011;58692;43.212;27.908;2023-05-16T07:40:17;9.27;;;4.90;;
71038;SDS011;58692;43.212;27.908;2023-05-16T07:42:44;12.48;;;4.78;;
71038;SDS011;58692;43.212;27.908;2023-05-16T07:45:10;13.33;;;4.80;;
71038;SDS011;58692;43.212;27.908;2023-05-16T07:47:35;10.67;;;4.87;;
71038;SDS011;58692;43.212;27.908;2023-05-16T07:50:04;12.05;;;4.97;;
71038;SDS011;58692;43.212;27.908;2023-05-16T07:52:29;11.35;;;4.43;;
71038;SDS011;58692;43.212;27.908;2023-05-16T07:54:55;9.47;;;4.80;;
71038;SDS011;58692;43.212;27.908;2023-05-16T07:57:20;9.43;;;4.20;;
71038;SDS011;58692;43.212;27.908;2023-05-16T07:59:46;10.63;;;4.65;;
71038;SDS011;58692;43.212;27.908;2023-05-16T08:02:12;11.30;;;4.87;;
71038;SDS011;58692;43.212;27.908;2023-05-16T08:04:38;8.90;;;4.40;;
71038;SDS011;58692;43.212;27.908;2023-05-16T08:07:03;9.80;;;4.57;;
71038;SDS011;58692;43.212;27.908;2023-05-16T08:09:29;9.77;;;4.40;;
71038;SDS011;58692;43.212;27.908;2023-05-16T08:11:55;13.47;;;4.73;;
71038;SDS011;58692;43.212;27.908;2023-05-16T08:14:20;10.52;;;4.18;;
71038;SDS011;58692;43.212;27.908;2023-05-16T08:16:49;11.65;;;4.53;;
71038;SDS011;58692;43.212;27.908;2023-05-16T08:19:16;9.90;;;4.40;;
71038;SDS011;58692;43.212;27.908;2023-05-16T08:21:44;10.60;;;4.80;;
71038;SDS011;58692;43.212;27.908;2023-05-16T08:24:10;10.70;;;4.82;;
71038;SDS011;58692;43.212;27.908;2023-05-16T08:26:36;10.27;;;4.93;;
71038;SDS011;58692;43.212;27.908;2023-05-16T08:29:02;9.50;;;4.25;;
71038;SDS011;58692;43.212;27.908;2023-05-16T08:31:31;12.18;;;4.90;;
71038;SDS011;58692;43.212;27.908;2023-05-16T08:33:57;10.07;;;4.50;;
71038;SDS011;58692;43.212;27.908;2023-05-16T08:36:22;9.60;;;4.70;;
71038;SDS011;58692;43.212;27.908;2023-05-16T08:38:49;10.80;;;4.83;;
71038;SDS011;58692;43.212;27.908;2023-05-16T08:41:15;11.77;;;4.68;;
71038;SDS011;58692;43.212;27.908;2023-05-16T08:43:40;9.63;;;4.72;;
71038;SDS011;58692;43.212;27.908;2023-05-16T08:46:06;12.67;;;5.00;;
71038;SDS011;58692;43.212;27.908;2023-05-16T08:48:32;10.60;;;5.10;;
71038;SDS011;58692;43.212;27.908;2023-05-16T08:51:00;10.63;;;5.03;;
71038;SDS011;58692;43.212;27.908;2023-05-16T08:53:30;9.38;;;5.00;;
71038;SDS011;58692;43.212;27.908;2023-05-16T08:56:02;13.10;;;4.83;;
71038;SDS011;58692;43.212;27.908;2023-05-16T08:58:29;10.55;;;4.45;;
71038;SDS011;58692;43.212;27.908;2023-05-16T09:00:56;9.27;;;4.68;;
71038;SDS011;58692;43.212;27.908;2023-05-16T09:03:22;9.10;;;4.85;;
71038;SDS011;58692;43.212;27.908;2023-05-16T09:05:49;11.25;;;4.50;;
71038;SDS011;58692;43.212;27.908;2023-05-16T09:08:14;9.87;;;4.17;;
71038;SDS011;58692;43.212;27.908;2023-05-16T09:10:40;10.70;;;4.47;;
71038;SDS011;58692;43.212;27.908;2023-05-16T09:13:05;8.20;;;4.38;;
71038;SDS011;58692;43.212;27.908;2023-05-16T09:15:31;10.53;;;4.53;;
71038;SDS011;58692;43.212;27.908;2023-05-16T09:18:02;8.90;;;4.45;;
71038;SDS011;58692;43.212;27.908;2023-05-16T09:20:28;8.85;;;4.95;;
71038;SDS011;58692;43.212;27.908;2023-05-16T09:22:56;10.07;;;4.70;;
71038;SDS011;58692;43.212;27.908;2023-05-16T09:25:24;11.23;;;4.73;;
71038;SDS011;58692;43.212;27.908;2023-05-16T09:27:52;9.82;;;4.50;;
71038;SDS011;58692;43.212;27.908;2023-05-16T09:30:22;10.80;;;4.70;;
71038;SDS011;58692;43.212;27.908;2023-05-16T09:32:52;13.82;;;4.68;;
71038;SDS011;58692;43.212;27.908;2023-05-16T09:35:18;12.18;;;4.78;;
71038;SDS011;58692;43.212;27.908;2023-05-16T09:37:46;9.67;;;4.63;;
71038;SDS011;58692;43.212;27.908;2023-05-16T09:40:12;13.23;;;4.95;;
71038;SDS011;58692;43.212;27.908;2023-05-16T09:42:39;12.32;;;5.45;;
71038;SDS011;58692;43.212;27.908;2023-05-16T09:45:05;11.17;;;5.07;;
71038;SDS011;58692;43.212;27.908;2023-05-16T09:47:31;13.85;;;4.93;;
71038;SDS011;58692;43.212;27.908;2023-05-16T09:49:58;10.35;;;5.05;;
71038;SDS011;58692;43.212;27.908;2023-05-16T09:52:26;12.85;;;4.78;;
71038;SDS011;58692;43.212;27.908;2023-05-16T09:54:52;10.13;;;4.65;;
71038;SDS011;58692;43.212;27.908;2023-05-16T09:57:26;9.50;;;4.80;;
71038;SDS011;58692;43.212;27.908;2023-05-16T10:00:00;11.50;;;5.15;;
71038;SDS011;58692;43.212;27.908;2023-05-16T10:02:36;10.38;;;5.40;;
71038;SDS011;58692;43.212;27.908;2023-05-16T10:05:03;9.10;;;5.32;;
71038;SDS011;58692;43.212;27.908;2023-05-16T10:07:30;10.75;;;5.00;;
71038;SDS011;58692;43.212;27.908;2023-05-16T10:10:00;12.70;;;5.27;;
71038;SDS011;58692;43.212;27.908;2023-05-16T10:12:30;13.00;;;4.93;;
71038;SDS011;58692;43.212;27.908;2023-05-16T10:15:06;11.07;;;5.97;;
71038;SDS011;58692;43.212;27.908;2023-05-16T10:17:35;9.77;;;4.60;;
71038;SDS011;58692;43.212;27.908;2023-05-16T10:20:04;8.38;;;4.88;;
71038;SDS011;58692;43.212;27.908;2023-05-16T10:22:39;12.83;;;5.10;;
71038;SDS011;58692;43.212;27.908;2023-05-16T10:27:48;12.10;;;4.70;;
71038;SDS011;58692;43.212;27.908;2023-05-16T10:30:16;10.45;;;4.60;;
71038;SDS011;58692;43.212;27.908;2023-05-16T10:32:42;10.05;;;4.82;;
71038;SDS011;58692;43.212;27.908;2023-05-16T10:35:10;14.63;;;6.07;;
71038;SDS011;58692;43.212;27.908;2023-05-16T10:37:35;13.82;;;5.45;;
71038;SDS011;58692;43.212;27.908;2023-05-16T10:40:05;16.60;;;5.38;;
71038;SDS011;58692;43.212;27.908;2023-05-16T10:42:34;14.00;;;5.35;;
71038;SDS011;58692;43.212;27.908;2023-05-16T10:50:41;10.27;;;4.82;;
71038;SDS011;58692;43.212;27.908;2023-05-16T10:53:12;9.07;;;4.57;;
71038;SDS011;58692;43.212;27.908;2023-05-16T10:55:44;11.15;;;4.95;;
71038;SDS011;58692;43.212;27.908;2023-05-16T10:58:17;11.93;;;4.90;;
71038;SDS011;58692;43.212;27.908;2023-05-16T11:00:48;10.18;;;5.25;;
71038;SDS011;58692;43.212;27.908;2023-05-16T11:03:21;10.37;;;4.77;;
71038;SDS011;58692;43.212;27.908;2023-05-16T11:05:52;12.10;;;4.85;;
71038;SDS011;58692;43.212;27.908;2023-05-16T11:08:18;11.63;;;4.97;;
71038;SDS011;58692;43.212;27.908;2023-05-16T11:10:44;9.10;;;4.70;;
71038;SDS011;58692;43.212;27.908;2023-05-16T11:13:11;10.93;;;5.18;;
71038;SDS011;58692;43.212;27.908;2023-05-16T11:15:40;11.27;;;4.63;;
71038;SDS011;58692;43.212;27.908;2023-05-16T11:18:06;9.70;;;4.70;;
71038;SDS011;58692;43.212;27.908;2023-05-16T11:20:34;9.43;;;4.33;;
71038;SDS011;58692;43.212;27.908;2023-05-16T11:23:31;10.52;;;4.57;;
71038;SDS011;58692;43.212;27.908;2023-05-16T11:25:57;10.15;;;4.47;;
71038;SDS011;58692;43.212;27.908;2023-05-16T11:28:24;10.70;;;4.78;;
71038;SDS011;58692;43.212;27.908;2023-05-16T11:30:53;11.27;;;4.70;;
71038;SDS011;58692;43.212;27.908;2023-05-16T11:33:29;10.73;;;5.00;;
71038;SDS011;58692;43.212;27.908;2023-05-16T11:36:03;11.57;;;5.20;;
71038;SDS011;58692;43.212;27.908;2023-05-16T11:38:31;11.73;;;4.97;;
71038;SDS011;58692;43.212;27.908;2023-05-16T11:41:02;11.25;;;5.28;;
71038;SDS011;58692;43.212;27.908;2023-05-16T11:43:35;12.88;;;5.50;;
71038;SDS011;58692;43.212;27.908;2023-05-16T11:46:12;14.13;;;5.40;;
71038;SDS011;58692;43.212;27.908;2023-05-16T11:48:38;9.25;;;4.50;;
71038;SDS011;58692;43.212;27.908;2023-05-16T11:51:05;12.65;;;5.35;;
71038;SDS011;58692;43.212;27.908;2023-05-16T11:53:31;9.68;;;4.85;;
71038;SDS011;58692;43.212;27.908;2023-05-16T11:55:58;12.95;;;5.53;;
71038;SDS011;58692;43.212;27.908;2023-05-16T11:58:26;14.03;;;5.40;;
71038;SDS011;58692;43.212;27.908;2023-05-16T12:00:52;12.20;;;5.40;;
71038;SDS011;58692;43.212;27.908;2023-05-16T12:03:21;9.88;;;5.10;;
71038;SDS011;58692;43.212;27.908;2023-05-16T12:05:52;11.18;;;5.25;;
71038;SDS011;58692;43.212;27.908;2023-05-16T12:08:19;11.35;;;4.70;;
71038;SDS011;58692;43.212;27.908;2023-05-16T12:10:48;10.70;;;5.17;;
71038;SDS011;58692;43.212;27.908;2023-05-16T12:13:16;8.65;;;4.88;;
71038;SDS011;58692;43.212;27.908;2023-05-16T12:15:43;12.93;;;5.60;;
71038;SDS011;58692;43.212;27.908;2023-05-16T12:18:19;10.40;;;4.90;;
71038;SDS011;58692;43.212;27.908;2023-05-16T12:20:45;10.02;;;5.13;;
71038;SDS011;58692;43.212;27.908;2023-05-16T12:23:16;10.80;;;5.07;;
71038;SDS011;58692;43.212;27.908;2023-05-16T12:25:45;12.80;;;5.55;;
71038;SDS011;58692;43.212;27.908;2023-05-16T12:28:13;11.80;;;5.15;;
71038;SDS011;58692;43.212;27.908;2023-05-16T12:30:48;14.10;;;5.93;;
71038;SDS011;58692;43.212;27.908;2023-05-16T12:33:14;10.77;;;4.93;;
71038;SDS011;58692;43.212;27.908;2023-05-16T12:35:40;11.88;;;4.75;;
71038;SDS011;58692;43.212;27.908;2023-05-16T12:38:08;11.57;;;5.18;;
71038;SDS011;58692;43.212;27.908;2023-05-16T12:40:37;16.55;;;5.18;;
71038;SDS011;58692;43.212;27.908;2023-05-16T12:43:04;13.83;;;5.20;;
71038;SDS011;58692;43.212;27.908;2023-05-16T12:45:38;11.63;;;4.97;;
71038;SDS011;58692;43.212;27.908;2023-05-16T12:48:04;12.57;;;5.07;;
71038;SDS011;58692;43.212;27.908;2023-05-16T12:50:31;14.60;;;5.50;;
71038;SDS011;58692;43.212;27.908;2023-05-16T12:53:00;10.65;;;5.13;;
71038;SDS011;58692;43.212;27.908;2023-05-16T12:55:26;12.25;;;5.68;;
71038;SDS011;58692;43.212;27.908;2023-05-16T12:57:51;11.93;;;5.10;;
71038;SDS011;58692;43.212;27.908;2023-05-16T13:00:20;13.20;;;5.60;;
71038;SDS011;58692;43.212;27.908;2023-05-16T13:02:46;14.50;;;6.00;;
71038;SDS011;58692;43.212;27.908;2023-05-16T13:05:12;12.20;;;5.67;;
71038;SDS011;58692;43.212;27.908;2023-05-16T13:07:39;11.30;;;5.40;;
71038;SDS011;58692;43.212;27.908;2023-05-16T13:10:08;12.48;;;5.47;;
71038;SDS011;58692;43.212;27.908;2023-05-16T13:12:36;11.90;;;5.63;;
71038;SDS011;58692;43.212;27.908;2023-05-16T13:15:03;13.73;;;5.53;;
71038;SDS011;58692;43.212;27.908;2023-05-16T13:17:32;13.02;;;5.63;;
71038;SDS011;58692;43.212;27.908;2023-05-16T13:20:08;12.23;;;5.13;;
71038;SDS011;58692;43.212;27.908;2023-05-16T13:22:38;14.68;;;5.50;;
71038;SDS011;58692;43.212;27.908;2023-05-16T13:25:14;13.98;;;5.15;;
71038;SDS011;58692;43.212;27.908;2023-05-16T13:27:49;10.17;;;5.03;;
71038;SDS011;58692;43.212;27.908;2023-05-16T13:30:14;15.80;;;6.13;;
71038;SDS011;58692;43.212;27.908;2023-05-16T13:32:40;12.25;;;5.80;;
71038;SDS011;58692;43.212;27.908;2023-05-16T13:35:07;16.08;;;5.72;;
71038;SDS011;58692;43.212;27.908;2023-05-16T13:37:34;16.00;;;6.87;;
71038;SDS011;58692;43.212;27.908;2023-05-16T13:40:01;15.82;;;6.68;;
71038;SDS011;58692;43.212;27.908;2023-05-16T13:42:28;13.90;;;6.20;;
71038;SDS011;58692;43.212;27.908;2023-05-16T13:44:53;16.03;;;6.10;;
71038;SDS011;58692;43.212;27.908;2023-05-16T13:47:20;12.18;;;5.97;;
71038;SDS011;58692;43.212;27.908;2023-05-16T13:49:46;15.15;;;6.28;;
71038;SDS011;58692;43.212;27.908;2023-05-16T13:52:12;13.25;;;5.53;;
71038;SDS011;58692;43.212;27.908;2023-05-16T13:54:40;13.73;;;5.90;;
71038;SDS011;58692;43.212;27.908;2023-05-16T13:57:13;12.48;;;6.60;;
71038;SDS011;58692;43.212;27.908;2023-05-16T13:59:38;15.70;;;6.40;;
71038;SDS011;58692;43.212;27.908;2023-05-16T14:02:04;13.47;;;6.57;;
71038;SDS011;58692;43.212;27.908;2023-05-16T14:07:21;15.15;;;6.90;;
71038;SDS011;58692;43.212;27.908;2023-05-16T14:09:53;17.47;;;7.00;;
71038;SDS011;58692;43.212;27.908;2023-05-16T14:12:27;17.65;;;7.25;;
71038;SDS011;58692;43.212;27.908;2023-05-16T14:14:55;14.38;;;6.80;;
71038;SDS011;58692;43.212;27.908;2023-05-16T14:17:23;17.02;;;6.97;;
71038;SDS011;58692;43.212;27.908;2023-05-16T14:19:49;12.97;;;6.27;;
71038;SDS011;58692;43.212;27.908;2023-05-16T14:22:15;13.60;;;6.22;;
71038;SDS011;58692;43.212;27.908;2023-05-16T14:24:42;10.65;;;6.30;;
71038;SDS011;58692;43.212;27.908;2023-05-16T14:27:10;14.68;;;6.82;;
71038;SDS011;58692;43.212;27.908;2023-05-16T14:29:36;14.07;;;6.83;;
71038;SDS011;58692;43.212;27.908;2023-05-16T14:32:01;15.10;;;6.37;;
71038;SDS011;58692;43.212;27.908;2023-05-16T14:34:27;16.02;;;6.90;;
71038;SDS011;58692;43.212;27.908;2023-05-16T14:36:53;18.63;;;6.73;;